createdAt,value
2022-11-20T00:01:07.027Z,2.90
2022-11-20T00:03:34.074Z,2.90
2022-11-20T00:06:02.208Z,2.80
2022-11-20T00:08:29.282Z,2.80
2022-11-20T00:10:56.101Z,2.90
2022-11-20T00:13:23.139Z,2.80
2022-11-20T00:15:49.970Z,2.70
2022-11-20T00:18:16.866Z,2.70
2022-11-20T00:20:43.769Z,2.80
2022-11-20T00:23:10.547Z,2.80
2022-11-20T00:25:37.433Z,2.70
2022-11-20T00:28:04.302Z,2.80
2022-11-20T00:30:31.246Z,2.80
2022-11-20T00:32:59.043Z,2.90
2022-11-20T00:35:25.902Z,3.10
2022-11-20T00:37:52.804Z,2.90
2022-11-20T00:40:19.618Z,3.00
2022-11-20T00:42:46.442Z,2.90
2022-11-20T00:45:13.281Z,2.80
2022-11-20T00:47:40.132Z,2.80
2022-11-20T00:50:07.061Z,2.90
2022-11-20T00:52:34.013Z,2.90
2022-11-20T00:55:00.840Z,2.90
2022-11-20T00:57:27.641Z,2.80
2022-11-20T00:59:54.478Z,2.80
2022-11-20T01:02:21.329Z,2.80
2022-11-20T01:04:48.211Z,2.90
2022-11-20T01:07:15.492Z,2.80
2022-11-20T01:09:42.343Z,2.90
2022-11-20T01:12:09.150Z,2.90
2022-11-20T01:14:36.126Z,3.00
2022-11-20T01:17:03.038Z,2.90
2022-11-20T01:19:29.809Z,2.90
2022-11-20T01:21:56.658Z,2.90
2022-11-20T01:24:23.626Z,2.80
2022-11-20T01:26:51.244Z,2.80
2022-11-20T01:29:19.675Z,2.90
2022-11-20T01:31:46.949Z,2.90
2022-11-20T01:34:16.177Z,2.90
2022-11-20T01:36:43.703Z,2.90
2022-11-20T01:39:15.017Z,2.90
2022-11-20T01:42:01.873Z,3.00
2022-11-20T01:44:51.693Z,2.90
2022-11-20T01:47:22.420Z,3.00
2022-11-20T01:50:24.938Z,3.00
2022-11-20T01:52:58.986Z,3.00
2022-11-20T01:55:33.960Z,3.00
2022-11-20T01:58:01.141Z,3.10
2022-11-20T02:00:28.102Z,3.10
2022-11-20T02:02:58.451Z,3.10
2022-11-20T02:05:25.249Z,3.10
2022-11-20T02:07:53.820Z,3.10
2022-11-20T02:10:20.973Z,3.10
2022-11-20T02:13:06.578Z,3.20
2022-11-20T02:15:33.883Z,3.30
2022-11-20T02:18:00.869Z,3.20
2022-11-20T02:20:27.766Z,3.10
2022-11-20T02:23:00.619Z,3.20
2022-11-20T02:25:28.033Z,3.30
2022-11-20T02:27:54.983Z,3.20
2022-11-20T02:30:21.825Z,3.20
2022-11-20T02:32:48.718Z,3.30
2022-11-20T02:35:21.401Z,3.30
2022-11-20T02:37:49.343Z,3.30
2022-11-20T02:40:16.208Z,3.40
2022-11-20T02:42:43.053Z,3.40
2022-11-20T02:45:10.033Z,3.50
2022-11-20T02:47:36.917Z,3.20
2022-11-20T02:50:04.763Z,3.20
2022-11-20T02:52:31.675Z,3.20
2022-11-20T02:54:58.640Z,3.30
2022-11-20T02:57:25.495Z,3.40
2022-11-20T02:59:52.336Z,3.40
2022-11-20T03:02:19.181Z,3.50
2022-11-20T03:04:46.004Z,3.50
2022-11-20T03:07:12.834Z,3.50
2022-11-20T03:09:39.827Z,3.40
2022-11-20T03:12:06.674Z,3.40
2022-11-20T03:14:33.505Z,3.50
2022-11-20T03:17:00.475Z,3.50
2022-11-20T03:19:27.297Z,3.60
2022-11-20T03:21:54.212Z,3.60
2022-11-20T03:24:21.005Z,3.60
2022-11-20T03:26:47.914Z,3.60
2022-11-20T03:29:14.837Z,3.60
2022-11-20T03:31:42.073Z,3.60
2022-11-20T03:34:09.990Z,3.50
2022-11-20T03:36:38.605Z,3.50
2022-11-20T03:39:05.519Z,3.50
2022-11-20T03:41:36.355Z,3.70
2022-11-20T03:44:04.354Z,4.00
2022-11-20T03:46:31.183Z,3.90
2022-11-20T03:48:58.935Z,3.90
2022-11-20T03:51:27.253Z,4.00
2022-11-20T03:53:55.350Z,3.90
2022-11-20T03:56:26.437Z,3.90
2022-11-20T03:58:53.419Z,3.90
2022-11-20T04:01:24.963Z,3.90
2022-11-20T04:03:53.422Z,3.90
2022-11-20T04:06:20.220Z,3.90
2022-11-20T04:08:52.416Z,3.80
2022-11-20T04:11:25.064Z,3.80
2022-11-20T04:13:53.072Z,3.70
2022-11-20T04:16:20.604Z,3.70
2022-11-20T04:18:47.555Z,3.60
2022-11-20T04:21:14.397Z,3.70
2022-11-20T04:23:41.321Z,3.70
2022-11-20T04:26:12.358Z,3.80
2022-11-20T04:28:39.687Z,3.70
2022-11-20T04:31:07.574Z,3.70
2022-11-20T04:33:35.275Z,3.80
2022-11-20T04:36:03.170Z,3.80
2022-11-20T04:38:30.079Z,4.00
2022-11-20T04:40:58.219Z,3.80
2022-11-20T04:43:25.172Z,3.90
2022-11-20T04:45:52.600Z,4.10
2022-11-20T04:48:19.516Z,3.90
2022-11-20T04:50:46.331Z,3.90
2022-11-20T04:53:13.212Z,3.70
2022-11-20T04:55:40.074Z,3.80
2022-11-20T04:58:07.010Z,3.90
2022-11-20T05:00:33.838Z,3.90
2022-11-20T05:03:00.696Z,3.90
2022-11-20T05:05:27.586Z,4.00
2022-11-20T05:07:56.509Z,4.00
2022-11-20T05:10:23.308Z,4.00
2022-11-20T05:12:50.153Z,4.10
2022-11-20T05:15:17.064Z,4.20
2022-11-20T05:17:50.925Z,4.20
2022-11-20T05:20:18.130Z,4.30
2022-11-20T05:22:45.437Z,4.30
2022-11-20T05:25:12.873Z,4.40
2022-11-20T05:27:39.840Z,4.40
2022-11-20T05:30:07.041Z,4.40
2022-11-20T05:32:33.848Z,4.60
2022-11-20T05:35:00.705Z,4.50
2022-11-20T05:37:27.468Z,4.50
2022-11-20T05:39:54.329Z,4.60
2022-11-20T05:42:33.139Z,4.70
2022-11-20T05:45:00.856Z,4.80
2022-11-20T05:47:28.749Z,5.00
2022-11-20T05:49:55.622Z,4.90
2022-11-20T05:52:22.475Z,4.90
2022-11-20T05:54:49.367Z,5.00
2022-11-20T05:57:16.330Z,5.00
2022-11-20T05:59:43.200Z,5.10
2022-11-20T06:02:10.021Z,5.20
2022-11-20T06:04:36.916Z,5.10
2022-11-20T06:07:03.854Z,5.10
2022-11-20T06:09:30.721Z,5.20
2022-11-20T06:11:57.652Z,5.40
2022-11-20T06:14:24.473Z,5.30
2022-11-20T06:16:51.370Z,5.30
2022-11-20T06:19:18.291Z,5.40
2022-11-20T06:21:45.163Z,5.50
2022-11-20T06:24:12.297Z,5.50
2022-11-20T06:26:39.083Z,5.40
2022-11-20T06:29:05.940Z,5.40
2022-11-20T06:31:38.672Z,5.40
2022-11-20T06:34:06.960Z,5.40
2022-11-20T06:36:34.062Z,5.50
2022-11-20T06:39:01.569Z,5.40
2022-11-20T06:41:29.026Z,5.40
2022-11-20T06:43:55.867Z,5.60
2022-11-20T06:46:23.976Z,5.50
2022-11-20T06:48:51.354Z,5.60
2022-11-20T06:51:18.499Z,5.60
2022-11-20T06:53:45.709Z,5.60
2022-11-20T06:56:12.544Z,5.70
2022-11-20T06:58:39.497Z,5.50
2022-11-20T07:01:13.723Z,5.60
2022-11-20T07:03:41.060Z,5.60
2022-11-20T07:06:08.270Z,5.70
2022-11-20T07:08:35.327Z,5.80
2022-11-20T07:11:03.212Z,5.70
2022-11-20T07:13:30.509Z,5.80
2022-11-20T07:16:00.742Z,5.80
2022-11-20T07:18:27.717Z,5.90
2022-11-20T07:20:54.532Z,6.00
2022-11-20T07:23:21.432Z,6.00
2022-11-20T07:25:48.267Z,6.00
2022-11-20T07:28:15.138Z,6.00
2022-11-20T07:30:42.002Z,6.00
2022-11-20T07:33:08.786Z,6.10
2022-11-20T07:35:36.897Z,6.00
2022-11-20T07:38:03.714Z,6.00
2022-11-20T07:40:30.581Z,6.00
2022-11-20T07:42:57.470Z,6.00
2022-11-20T07:45:24.636Z,6.10
2022-11-20T07:47:51.801Z,6.10
2022-11-20T07:50:19.389Z,6.20
2022-11-20T07:52:46.292Z,6.30
2022-11-20T07:55:13.368Z,6.40
2022-11-20T07:57:40.189Z,6.30
2022-11-20T08:00:10.159Z,6.30
2022-11-20T08:02:40.982Z,6.30
2022-11-20T08:05:08.880Z,6.30
2022-11-20T08:07:39.827Z,6.30
2022-11-20T08:10:07.505Z,6.30
2022-11-20T08:12:53.124Z,6.30
2022-11-20T08:15:19.980Z,6.40
2022-11-20T08:18:08.270Z,6.40
2022-11-20T08:20:33.959Z,6.40
2022-11-20T08:23:06.325Z,6.50
2022-11-20T08:25:33.990Z,6.50
2022-11-20T08:28:07.918Z,6.50
2022-11-20T08:30:42.678Z,6.50
2022-11-20T08:33:10.151Z,6.50
2022-11-20T08:35:37.594Z,6.60
2022-11-20T08:38:05.602Z,6.60
2022-11-20T08:40:32.888Z,6.70
2022-11-20T08:42:59.845Z,6.60
2022-11-20T08:45:31.011Z,6.60
2022-11-20T08:48:01.077Z,6.80
2022-11-20T08:50:28.036Z,6.80
2022-11-20T08:52:54.791Z,7.00
2022-11-20T08:55:21.579Z,6.90
2022-11-20T08:57:51.081Z,6.90
2022-11-20T09:00:18.177Z,6.90
2022-11-20T09:02:45.005Z,7.00
2022-11-20T09:05:11.850Z,7.00
2022-11-20T09:07:38.669Z,7.00
2022-11-20T09:12:53.209Z,7.10
2022-11-20T09:15:20.311Z,7.10
2022-11-20T09:17:53.811Z,7.10
2022-11-20T09:20:20.707Z,7.10
2022-11-20T09:22:47.739Z,7.10
2022-11-20T09:25:14.666Z,7.10
2022-11-20T09:27:44.666Z,7.10
2022-11-20T09:30:11.959Z,7.10
2022-11-20T09:32:41.803Z,7.00
2022-11-20T09:35:08.989Z,7.10
2022-11-20T09:37:35.970Z,7.10
2022-11-20T09:40:03.162Z,7.10
2022-11-20T09:42:39.108Z,7.20
2022-11-20T09:45:30.017Z,7.20
2022-11-20T09:48:14.429Z,7.20
2022-11-20T09:50:41.339Z,7.20
2022-11-20T09:53:12.295Z,7.30
2022-11-20T09:55:39.710Z,7.40
2022-11-20T09:58:07.162Z,7.40
2022-11-20T10:00:35.507Z,7.40
2022-11-20T10:03:05.214Z,7.60
2022-11-20T10:05:38.580Z,7.50
2022-11-20T10:08:05.539Z,7.50
2022-11-20T10:10:42.604Z,7.60
2022-11-20T10:13:13.642Z,7.70
2022-11-20T10:16:03.957Z,7.80
2022-11-20T10:18:45.982Z,7.70
2022-11-20T10:21:15.942Z,7.80
2022-11-20T10:24:01.703Z,7.90
2022-11-20T10:26:31.864Z,7.90
2022-11-20T10:29:08.619Z,8.00
2022-11-20T10:31:37.621Z,8.00
2022-11-20T10:34:12.877Z,7.90
2022-11-20T10:36:45.851Z,7.80
2022-11-20T10:39:20.216Z,7.80
2022-11-20T10:41:49.450Z,7.70
2022-11-20T10:44:42.577Z,7.80
2022-11-20T10:47:19.103Z,7.70
2022-11-20T10:49:47.950Z,7.70
2022-11-20T10:52:17.837Z,7.80
2022-11-20T10:54:49.543Z,7.80
2022-11-20T10:57:22.899Z,7.70
2022-11-20T10:59:59.524Z,7.70
2022-11-20T11:02:40.320Z,7.70
2022-11-20T11:05:33.778Z,7.80
2022-11-20T11:08:00.917Z,7.80
2022-11-20T11:10:47.184Z,8.00
2022-11-20T11:13:24.730Z,8.00
2022-11-20T11:15:52.114Z,7.90
2022-11-20T11:18:26.447Z,8.00
2022-11-20T11:20:54.065Z,8.00
2022-11-20T11:23:39.952Z,7.80
2022-11-20T11:26:20.872Z,7.60
2022-11-20T11:29:17.194Z,7.60
2022-11-20T11:31:44.093Z,7.50
2022-11-20T11:34:18.004Z,7.50
2022-11-20T11:36:57.541Z,7.50
2022-11-20T11:39:25.482Z,7.60
2022-11-20T11:41:52.873Z,8.20
2022-11-20T11:44:39.656Z,8.80
2022-11-20T11:47:10.908Z,9.90
2022-11-20T11:49:37.962Z,11.30
2022-11-20T11:52:19.527Z,12.40
2022-11-20T11:55:01.414Z,12.80
2022-11-20T11:57:46.898Z,11.90
2022-11-20T12:00:15.388Z,11.90
2022-11-20T12:02:42.209Z,12.50
2022-11-20T12:05:12.273Z,11.90
2022-11-20T12:08:12.853Z,11.80
2022-11-20T12:10:45.982Z,12.30
2022-11-20T12:13:31.913Z,13.10
2022-11-20T12:15:59.248Z,12.50
2022-11-20T12:18:26.468Z,11.20
2022-11-20T12:21:03.263Z,10.60
2022-11-20T12:23:36.675Z,10.40
2022-11-20T12:26:08.152Z,10.30
2022-11-20T12:29:01.248Z,10.10
2022-11-20T12:31:28.300Z,10.20
2022-11-20T12:34:10.525Z,10.30
2022-11-20T12:36:40.442Z,10.70
2022-11-20T12:39:16.447Z,10.50
2022-11-20T12:42:11.385Z,10.30
2022-11-20T12:45:05.170Z,10.40
2022-11-20T12:47:44.181Z,9.90
2022-11-20T12:50:30.604Z,9.60
2022-11-20T12:53:07.102Z,9.70
2022-11-20T12:55:52.901Z,10.30
2022-11-20T12:58:19.882Z,11.10
2022-11-20T13:00:59.651Z,11.30
2022-11-20T13:03:38.946Z,10.70
2022-11-20T13:06:11.279Z,10.30
2022-11-20T13:08:40.202Z,9.70
2022-11-20T13:11:07.086Z,9.40
2022-11-20T13:13:43.175Z,9.10
2022-11-20T13:16:14.733Z,8.90
2022-11-20T13:18:43.621Z,9.00
2022-11-20T13:21:18.110Z,9.10
2022-11-20T13:23:45.223Z,9.60
2022-11-20T13:26:20.610Z,10.10
2022-11-20T13:28:48.660Z,10.50
2022-11-20T13:31:32.390Z,10.70
2022-11-20T13:34:00.750Z,10.60
2022-11-20T13:36:28.624Z,10.60
2022-11-20T13:38:56.464Z,10.20
2022-11-20T13:41:38.891Z,10.30
2022-11-20T13:44:15.203Z,10.30
2022-11-20T13:46:46.520Z,10.20
2022-11-20T13:49:31.817Z,10.00
2022-11-20T13:52:17.534Z,9.90
2022-11-20T13:55:02.917Z,9.80
2022-11-20T13:57:41.104Z,9.80
2022-11-20T14:00:13.775Z,9.60
2022-11-20T14:02:42.110Z,9.60
2022-11-20T14:05:18.283Z,9.50
2022-11-20T14:07:46.490Z,9.50
2022-11-20T14:10:29.927Z,9.40
2022-11-20T14:12:58.913Z,9.30
2022-11-20T14:15:27.102Z,9.10
2022-11-20T14:17:54.047Z,9.00
2022-11-20T14:20:24.457Z,9.00
2022-11-20T14:22:52.045Z,9.10
2022-11-20T14:25:19.130Z,9.30
2022-11-20T14:27:48.901Z,9.40
2022-11-20T14:30:17.268Z,9.50
2022-11-20T14:32:45.062Z,9.50
2022-11-20T14:35:20.026Z,9.50
2022-11-20T14:37:47.168Z,9.60
2022-11-20T14:40:24.872Z,9.50
2022-11-20T14:42:51.990Z,9.30
2022-11-20T14:45:19.448Z,9.20
2022-11-20T14:47:46.955Z,9.10
2022-11-20T14:50:17.149Z,9.00
2022-11-20T14:53:10.739Z,8.90
2022-11-20T14:55:39.521Z,8.80
2022-11-20T14:58:26.721Z,8.70
2022-11-20T15:00:55.099Z,8.60
2022-11-20T15:03:22.103Z,8.50
2022-11-20T15:05:49.880Z,8.40
2022-11-20T15:08:17.560Z,8.40
2022-11-20T15:10:51.446Z,8.30
2022-11-20T15:13:30.683Z,8.10
2022-11-20T15:15:58.853Z,8.00
2022-11-20T15:18:39.136Z,8.00
2022-11-20T15:21:11.364Z,7.90
2022-11-20T15:23:38.223Z,7.80
2022-11-20T15:26:06.112Z,7.60
2022-11-20T15:28:43.932Z,7.60
2022-11-20T15:31:14.418Z,7.60
2022-11-20T15:33:41.594Z,7.60
2022-11-20T15:36:08.888Z,7.50
2022-11-20T15:38:36.042Z,7.50
2022-11-20T15:41:03.016Z,7.40
2022-11-20T15:43:29.927Z,7.30
2022-11-20T15:45:59.776Z,7.40
2022-11-20T15:48:37.642Z,7.30
2022-11-20T15:51:10.792Z,7.30
2022-11-20T15:53:41.489Z,7.30
2022-11-20T15:56:13.076Z,7.20
2022-11-20T15:58:40.364Z,7.20
2022-11-20T16:01:11.294Z,7.20
2022-11-20T16:03:38.524Z,7.10
2022-11-20T16:06:05.698Z,7.10
2022-11-20T16:08:32.769Z,7.10
2022-11-20T16:10:59.880Z,7.10
2022-11-20T16:13:45.434Z,7.10
2022-11-20T16:16:32.248Z,7.10
2022-11-20T16:18:59.193Z,7.10
2022-11-20T16:21:32.106Z,7.10
2022-11-20T16:24:04.636Z,7.00
2022-11-20T16:26:32.101Z,6.90
2022-11-20T16:29:03.588Z,7.00
2022-11-20T16:31:30.876Z,7.00
2022-11-20T16:33:59.199Z,7.00
2022-11-20T16:36:26.931Z,6.90
2022-11-20T16:38:57.888Z,6.90
2022-11-20T16:41:26.728Z,7.00
2022-11-20T16:43:58.220Z,6.90
2022-11-20T16:46:26.166Z,6.90
2022-11-20T16:48:53.997Z,6.80
2022-11-20T16:51:21.058Z,6.70
2022-11-20T16:53:47.986Z,6.70
2022-11-20T16:56:17.577Z,6.70
2022-11-20T16:58:44.878Z,6.60
2022-11-20T17:01:12.840Z,6.70
2022-11-20T17:03:40.941Z,6.60
2022-11-20T17:06:11.824Z,6.70
2022-11-20T17:08:38.884Z,6.80
2022-11-20T17:11:06.631Z,6.70
2022-11-20T17:13:38.586Z,6.60
2022-11-20T17:16:07.845Z,6.60
2022-11-20T17:18:34.949Z,6.50
2022-11-20T17:21:05.383Z,6.50
2022-11-20T17:23:33.087Z,6.50
2022-11-20T17:26:03.896Z,6.50
2022-11-20T17:28:32.057Z,6.40
2022-11-20T17:30:59.658Z,6.50
2022-11-20T17:33:26.614Z,6.60
2022-11-20T17:35:53.520Z,6.70
2022-11-20T17:38:20.418Z,6.70
2022-11-20T17:40:47.540Z,6.70
2022-11-20T17:43:14.406Z,6.60
2022-11-20T17:45:41.284Z,6.60
2022-11-20T17:48:08.289Z,6.70
2022-11-20T17:50:35.161Z,6.70
2022-11-20T17:53:02.001Z,6.60
2022-11-20T17:55:52.796Z,6.60
2022-11-20T17:58:22.719Z,6.50
2022-11-20T18:00:49.717Z,6.40
2022-11-20T18:03:16.637Z,6.30
2022-11-20T18:05:43.476Z,6.30
2022-11-20T18:08:10.379Z,6.40
2022-11-20T18:10:37.260Z,6.40
2022-11-20T18:13:04.421Z,6.30
2022-11-20T18:15:31.265Z,6.30
2022-11-20T18:17:58.253Z,6.20
2022-11-20T18:20:31.145Z,6.20
2022-11-20T18:23:00.209Z,6.10
2022-11-20T18:25:27.153Z,6.10
2022-11-20T18:27:54.027Z,6.00
2022-11-20T18:30:21.320Z,6.00
2022-11-20T18:32:48.288Z,6.00
2022-11-20T18:35:15.536Z,5.90
2022-11-20T18:37:42.399Z,6.00
2022-11-20T18:40:09.688Z,5.90
2022-11-20T18:42:55.731Z,5.80
2022-11-20T18:45:22.656Z,5.80
2022-11-20T18:47:49.632Z,5.80
2022-11-20T18:50:16.606Z,5.80
2022-11-20T18:52:47.912Z,5.80
2022-11-20T18:55:15.045Z,5.70
2022-11-20T18:57:42.018Z,5.70
2022-11-20T19:00:10.225Z,5.80
2022-11-20T19:02:42.096Z,5.80
2022-11-20T19:05:10.964Z,5.80
2022-11-20T19:07:37.970Z,5.80
2022-11-20T19:10:06.159Z,5.80
2022-11-20T19:12:33.309Z,5.80
2022-11-20T19:15:00.191Z,5.70
2022-11-20T19:17:27.060Z,5.50
2022-11-20T19:19:55.055Z,5.50
2022-11-20T19:22:22.334Z,5.40
2022-11-20T19:24:49.709Z,5.40
2022-11-20T19:27:16.659Z,5.30
2022-11-20T19:29:43.641Z,5.30
2022-11-20T19:32:10.514Z,5.30
2022-11-20T19:34:37.454Z,5.30
2022-11-20T19:37:05.296Z,5.40
2022-11-20T19:39:32.274Z,5.30
2022-11-20T19:41:59.195Z,5.20
2022-11-20T19:44:26.125Z,5.30
2022-11-20T19:46:52.972Z,5.30
2022-11-20T19:49:19.959Z,5.30
2022-11-20T19:51:48.302Z,5.30
2022-11-20T19:54:15.292Z,5.30
2022-11-20T19:56:42.510Z,5.40
2022-11-20T19:59:09.402Z,5.40
2022-11-20T20:01:36.661Z,5.40
2022-11-20T20:04:05.454Z,5.40
2022-11-20T20:06:34.042Z,5.40
2022-11-20T20:09:02.378Z,5.40
2022-11-20T20:11:30.412Z,5.50
2022-11-20T20:13:59.208Z,5.50
2022-11-20T20:16:28.009Z,5.40
2022-11-20T20:18:55.867Z,5.50
2022-11-20T20:21:23.243Z,5.60
2022-11-20T20:23:50.772Z,5.50
2022-11-20T20:26:17.968Z,5.50
2022-11-20T20:28:44.772Z,5.50
2022-11-20T20:31:13.138Z,5.50
2022-11-20T20:33:40.812Z,5.50
2022-11-20T20:36:08.779Z,5.50
2022-11-20T20:38:35.638Z,5.40
2022-11-20T20:41:02.632Z,5.50
2022-11-20T20:43:29.593Z,5.50
2022-11-20T20:45:56.599Z,5.50
2022-11-20T20:48:24.125Z,5.50
2022-11-20T20:50:58.535Z,5.50
2022-11-20T20:53:25.748Z,5.50
2022-11-20T20:55:59.797Z,5.50
2022-11-20T20:58:27.346Z,5.50
2022-11-20T21:00:54.403Z,5.50
2022-11-20T21:03:21.564Z,5.50
2022-11-20T21:05:55.249Z,5.60
2022-11-20T21:08:22.290Z,5.50
2022-11-20T21:10:49.261Z,5.50
2022-11-20T21:13:16.536Z,5.50
2022-11-20T21:15:46.221Z,5.50
2022-11-20T21:18:13.083Z,5.50
2022-11-20T21:20:58.779Z,5.50
2022-11-20T21:23:25.747Z,5.60
2022-11-20T21:25:52.628Z,5.60
2022-11-20T21:28:19.578Z,5.60
2022-11-20T21:30:47.065Z,5.60
2022-11-20T21:33:14.327Z,5.60
2022-11-20T21:35:41.556Z,5.60
2022-11-20T21:38:08.569Z,5.60
2022-11-20T21:40:35.476Z,5.60
2022-11-20T21:43:02.335Z,5.70
2022-11-20T21:45:29.233Z,5.70
2022-11-20T21:47:56.193Z,5.70
2022-11-20T21:50:23.121Z,5.70
2022-11-20T21:52:49.956Z,5.70
2022-11-20T21:55:16.926Z,5.80
2022-11-20T21:57:43.806Z,5.80
2022-11-20T22:00:11.676Z,5.80
2022-11-20T22:02:39.296Z,5.80
2022-11-20T22:05:06.811Z,5.80
2022-11-20T22:07:33.782Z,5.80
2022-11-20T22:10:00.766Z,5.80
2022-11-20T22:12:27.740Z,5.80
2022-11-20T22:14:54.819Z,5.80
2022-11-20T22:17:41.675Z,5.80
2022-11-20T22:20:09.200Z,5.80
2022-11-20T22:22:36.060Z,5.80
2022-11-20T22:25:03.022Z,5.90
2022-11-20T22:27:29.909Z,5.90
2022-11-20T22:29:56.794Z,6.00
2022-11-20T22:32:23.709Z,6.00
2022-11-20T22:34:50.580Z,5.90
2022-11-20T22:37:17.509Z,5.90
2022-11-20T22:39:44.357Z,5.80
2022-11-20T22:42:11.308Z,5.80
2022-11-20T22:44:38.264Z,5.80
2022-11-20T22:47:10.076Z,5.80
2022-11-20T22:49:38.227Z,5.80
2022-11-20T22:52:05.209Z,5.90
2022-11-20T22:54:32.119Z,5.90
2022-11-20T22:56:59.165Z,5.80
2022-11-20T22:59:26.123Z,5.80
2022-11-20T23:01:53.123Z,5.70
2022-11-20T23:04:20.074Z,5.80
2022-11-20T23:06:47.012Z,5.70
2022-11-20T23:09:14.054Z,5.70
2022-11-20T23:11:40.924Z,5.70
2022-11-20T23:14:11.839Z,5.70
2022-11-20T23:16:38.804Z,5.60
2022-11-20T23:19:07.010Z,5.70
2022-11-20T23:21:34.461Z,5.60
2022-11-20T23:24:01.716Z,5.70
2022-11-20T23:26:31.714Z,5.70
2022-11-20T23:28:59.404Z,5.90
2022-11-20T23:31:27.400Z,5.90
2022-11-20T23:33:54.563Z,5.90
2022-11-20T23:36:21.717Z,6.00
2022-11-20T23:38:48.624Z,6.00
2022-11-20T23:41:15.488Z,6.00
2022-11-20T23:43:42.374Z,5.90
2022-11-20T23:46:13.710Z,5.90
2022-11-20T23:48:44.866Z,5.80
2022-11-20T23:51:11.831Z,5.70
2022-11-20T23:53:38.677Z,5.70
2022-11-20T23:56:06.085Z,5.90
2022-11-20T23:58:33.918Z,5.90
